Time;durP1;ratioP1;P1;durP2;ratioP2;P2;SDS_P1;SDS_P2;PMS_P1;PMS_P2;Temp;Humidity;BMP_temperature;BMP_pressure;BME280_temperature;BME280_humidity;BME280_pressure;Samples;Min_cycle;Max_cycle;Signal;HPM_P1;HPM_P2
2024/04/04 00:00:01;;;;;;;;;;;10.90;99.90;;;11.08;68.48;99640.59;5092408;28;19928;-83
2024/04/04 00:02:27;;;;;;;;;;;11.00;99.90;;;11.02;68.07;99636.19;5059544;28;19931;-83
2024/04/04 00:05:01;;;;;;;;;;;10.90;99.90;;;11.03;67.99;99632.50;5042183;28;19932;-83
2024/04/04 00:07:27;;;;;;;;;;;10.90;99.90;;;11.09;68.25;99636.88;5066316;28;19925;-83
2024/04/04 00:09:57;;;;;;;;;;;10.90;99.90;;;11.07;67.52;99636.28;5056182;28;20330;-83
2024/04/04 00:12:25;;;;;;;;;;;11.00;99.90;;;11.09;67.72;99639.56;5039791;28;19925;-83
2024/04/04 00:14:52;;;;;;;;;;;10.90;99.90;;;11.05;67.69;99641.06;5038644;28;19947;-83
2024/04/04 00:17:18;;;;;;;;;;;10.90;99.90;;;11.00;67.79;99640.97;5055671;28;20376;-83
2024/04/04 00:19:45;;;;;;;;;;;10.90;99.90;;;11.01;68.04;99645.25;5038815;28;20342;-83
2024/04/04 00:22:12;;;;;;;;;;;10.90;99.90;;;10.93;67.97;99643.75;5056294;28;19928;-83
2024/04/04 00:24:39;;;;;;;;;;;10.90;99.90;;;10.98;68.15;99640.34;5056679;28;19931;-83
2024/04/04 00:27:05;;;;;;;;;;;10.80;99.90;;;11.04;68.47;99634.13;5057078;28;19967;-83
2024/04/04 00:29:35;;;;;;;;;;;10.90;99.90;;;11.06;68.25;99632.81;5055279;28;20388;-83
2024/04/04 00:32:01;;;;;;;;;;;10.90;99.90;;;11.06;68.12;99627.47;5056874;28;19947;-83
2024/04/04 00:34:29;;;;;;;;;;;10.90;99.90;;;11.05;68.06;99625.06;5055156;28;20316;-83
2024/04/04 00:36:55;;;;;;;;;;;10.80;99.90;;;11.08;68.64;99620.06;5057990;28;19924;-83
2024/04/04 00:39:23;;;;;;;;;;;10.80;99.90;;;11.09;68.37;99628.88;5059814;28;19929;-83
2024/04/04 00:41:51;;;;;;;;;;;10.80;99.90;;;11.11;68.68;99617.97;5041935;28;20388;-83
2024/04/04 00:44:17;;;;;;;;;;;10.80;99.90;;;11.13;68.49;99610.56;5058301;28;19925;-83
2024/04/04 00:46:46;;;;;;;;;;;10.90;99.90;;;11.16;68.85;99615.41;5060285;28;19956;-83
2024/04/04 00:49:12;;;;;;;;;;;10.90;99.90;;;11.14;68.77;99610.31;5060068;28;19928;-83
2024/04/04 00:51:40;;;;;;;;;;;10.90;99.90;;;11.13;68.75;99607.88;5042089;28;19925;-83
2024/04/04 00:54:06;;;;;;;;;;;10.80;99.90;;;11.15;68.37;99606.59;5060516;28;19971;-83
2024/04/04 00:56:33;;;;;;;;;;;10.80;99.90;;;11.03;68.46;99595.94;5058751;28;20315;-83
2024/04/04 00:59:00;;;;;;;;;;;10.80;99.90;;;11.07;68.64;99607.75;5058473;28;19976;-83
2024/04/04 01:01:28;;;;;;;;;;;10.80;99.90;;;11.10;68.84;99601.13;5059236;28;19924;-83
2024/04/04 01:03:55;;;;;;;;;;;10.80;99.90;;;11.11;68.89;99600.09;5059859;28;19925;-83
2024/04/04 01:06:30;;;;;;;;;;;10.80;99.90;;;11.14;69.07;99588.94;5058402;28;20004;-83
2024/04/04 01:08:58;;;;;;;;;;;10.80;99.90;;;11.14;68.97;99591.63;5058458;28;19991;-83
2024/04/04 01:11:25;;;;;;;;;;;10.80;99.90;;;11.14;68.79;99588.94;5060038;28;19978;-83
2024/04/04 01:13:51;;;;;;;;;;;10.80;99.90;;;11.14;68.69;99586.28;5073590;28;19928;-83
2024/04/04 01:16:24;;;;;;;;;;;10.80;99.90;;;11.14;68.92;99580.94;5079923;28;19931;-83
2024/04/04 01:18:51;;;;;;;;;;;10.80;99.90;;;11.12;68.14;99574.22;5080264;28;19924;-83
2024/04/04 01:21:20;;;;;;;;;;;10.80;99.90;;;11.10;68.68;99574.47;5078651;28;19959;-83
2024/04/04 01:23:48;;;;;;;;;;;10.80;99.90;;;11.09;68.84;99578.19;5077674;28;19925;-83
2024/04/04 01:26:15;;;;;;;;;;;10.80;99.90;;;11.14;69.47;99569.47;5078184;28;19925;-83
2024/04/04 01:28:41;;;;;;;;;;;10.80;99.90;;;11.16;69.23;99570.03;5060860;28;20372;-83
2024/04/04 01:31:09;;;;;;;;;;;10.90;99.90;;;11.14;69.26;99578.28;5066385;28;20394;-83
2024/04/04 01:33:35;;;;;;;;;;;10.80;99.90;;;11.15;69.31;99563.88;5057887;28;19924;-83
2024/04/04 01:36:02;;;;;;;;;;;10.80;99.90;;;11.17;69.23;99564.44;5059176;28;19971;-83
2024/04/04 01:38:28;;;;;;;;;;;10.90;99.90;;;11.06;68.66;99555.44;5040724;28;19925;-83
2024/04/04 01:40:58;;;;;;;;;;;10.90;99.90;;;11.09;69.22;99551.50;5057347;28;20019;-83
2024/04/04 01:43:24;;;;;;;;;;;10.90;99.90;;;11.07;68.71;99550.91;5058131;28;19946;-83
2024/04/04 01:45:51;;;;;;;;;;;10.80;99.90;;;11.02;68.41;99546.28;5059275;28;19924;-83
2024/04/04 01:48:17;;;;;;;;;;;10.80;99.90;;;11.05;69.08;99543.16;5039731;28;20351;-83
2024/04/04 01:50:45;;;;;;;;;;;10.80;99.90;;;11.09;69.47;99540.81;5056811;28;19925;-83
2024/04/04 01:53:11;;;;;;;;;;;10.90;99.90;;;11.12;69.45;99535.00;5056416;28;19925;-83
2024/04/04 01:55:38;;;;;;;;;;;10.90;99.90;;;11.13;69.67;99531.28;5040619;28;19925;-83
2024/04/04 01:58:06;;;;;;;;;;;10.90;99.90;;;11.15;69.36;99534.53;5057580;28;19979;-83
2024/04/04 02:00:35;;;;;;;;;;;10.90;99.90;;;11.19;69.55;99522.34;5056885;28;19958;-83
2024/04/04 02:03:01;;;;;;;;;;;10.90;99.90;;;11.13;68.67;99519.81;5058603;28;19932;-83
2024/04/04 02:05:28;;;;;;;;;;;10.90;99.90;;;11.16;69.11;99524.66;5057742;28;19982;-83
2024/04/04 02:07:54;;;;;;;;;;;10.90;99.90;;;11.14;69.32;99514.22;5057153;28;20482;-83
2024/04/04 02:10:21;;;;;;;;;;;11.00;99.90;;;11.15;69.16;99510.50;5056778;28;19929;-83
2024/04/04 02:12:47;;;;;;;;;;;11.00;99.90;;;11.19;69.82;99510.84;5057453;28;20450;-83
2024/04/04 02:15:16;;;;;;;;;;;11.00;99.90;;;11.20;69.97;99497.25;5056545;28;19936;-83
2024/04/04 02:17:43;;;;;;;;;;;11.00;99.90;;;11.23;69.93;99499.47;5057205;28;20388;-83
2024/04/04 02:20:13;;;;;;;;;;;11.00;99.90;;;11.26;69.74;99500.81;5040974;28;19975;-83
2024/04/04 02:22:39;;;;;;;;;;;11.00;99.90;;;11.21;68.72;99504.22;5056627;28;19929;-83
2024/04/04 02:25:09;;;;;;;;;;;11.10;99.90;;;11.26;68.89;99484.81;5057419;28;19924;-83
2024/04/04 02:27:35;;;;;;;;;;;11.10;99.90;;;11.23;69.17;99493.31;5058456;28;19925;-83
2024/04/04 02:30:02;;;;;;;;;;;11.10;99.90;;;11.24;68.80;99487.72;5056822;28;19925;-83
2024/04/04 02:32:33;;;;;;;;;;;11.10;99.90;;;11.25;69.11;99484.00;5057711;28;19932;-83
2024/04/04 02:35:00;;;;;;;;;;;11.10;99.90;;;11.25;68.95;99481.34;5056680;28;19968;-83
2024/04/04 02:37:26;;;;;;;;;;;11.10;99.90;;;11.21;69.00;99477.53;5058444;28;19967;-83
2024/04/04 02:39:53;;;;;;;;;;;11.10;99.90;;;11.25;69.21;99480.53;5057382;28;19928;-83
2024/04/04 02:42:20;;;;;;;;;;;11.10;99.90;;;11.29;69.65;99471.81;5058685;28;19924;-83
2024/04/04 02:44:48;;;;;;;;;;;11.10;99.90;;;11.29;69.15;99481.66;5058643;28;19925;-83
2024/04/04 02:47:14;;;;;;;;;;;11.20;99.90;;;11.33;69.45;99472.94;5056667;28;19925;-83
2024/04/04 02:49:43;;;;;;;;;;;11.20;99.90;;;11.33;69.41;99470.28;5058302;28;19925;-83
2024/04/04 02:52:09;;;;;;;;;;;11.20;99.90;;;11.32;69.56;99465.16;5058426;28;19925;-83
2024/04/04 02:54:37;;;;;;;;;;;11.20;99.90;;;11.30;70.08;99454.72;5056203;28;20391;-83
2024/04/04 02:57:04;;;;;;;;;;;11.20;99.90;;;11.26;69.37;99450.13;5057284;28;19956;-83
2024/04/04 02:59:32;;;;;;;;;;;11.20;99.90;;;11.29;69.81;99460.31;5045591;28;19925;-83
2024/04/04 03:01:58;;;;;;;;;;;11.20;99.90;;;11.31;70.59;99450.19;5093904;28;19947;-83
2024/04/04 03:04:25;;;;;;;;;;;11.20;99.90;;;11.32;70.41;99443.81;5077427;28;20027;-83
2024/04/04 03:06:54;;;;;;;;;;;11.20;99.90;;;11.28;69.80;99438.16;5078008;28;19963;-83
2024/04/04 03:09:23;;;;;;;;;;;11.20;99.90;;;11.30;70.33;99444.06;5076599;28;19950;-83
2024/04/04 03:11:49;;;;;;;;;;;11.20;99.90;;;11.24;70.40;99445.03;5093457;28;19924;-83
2024/04/04 03:14:16;;;;;;;;;;;11.20;99.90;;;11.29;71.23;99445.13;5076298;28;19970;-83
2024/04/04 03:16:42;;;;;;;;;;;11.20;99.90;;;11.31;71.77;99437.66;5076705;28;19924;-83
2024/04/04 03:19:10;;;;;;;;;;;11.20;99.90;;;11.31;72.15;99437.66;5076025;28;19947;-83
2024/04/04 03:21:37;;;;;;;;;;;11.20;99.90;;;11.29;72.23;99437.09;5059769;28;19925;-83
2024/04/04 03:24:06;;;;;;;;;;;11.20;99.90;;;11.29;72.99;99430.97;5042823;28;19967;-83
2024/04/04 03:26:32;;;;;;;;;;;11.20;99.90;;;11.32;73.05;99431.28;5074225;28;20398;-83
2024/04/04 03:29:01;;;;;;;;;;;11.20;99.90;;;11.29;73.00;99429.09;5056317;28;19925;-83
2024/04/04 03:31:27;;;;;;;;;;;11.20;99.90;;;11.25;73.66;99425.28;5056175;28;20399;-83
2024/04/04 03:33:54;;;;;;;;;;;11.10;99.90;;;11.24;73.87;99415.66;5056900;28;19979;-83
2024/04/04 03:36:21;;;;;;;;;;;11.10;99.90;;;11.22;74.66;99417.75;5057327;28;19974;-83
2024/04/04 03:38:48;;;;;;;;;;;11.10;99.90;;;11.21;74.96;99404.66;5055596;28;19924;-83
2024/04/04 03:41:17;;;;;;;;;;;11.10;99.90;;;11.24;75.33;99406.84;5056456;28;19992;-83
2024/04/04 03:43:44;;;;;;;;;;;11.10;99.90;;;11.23;75.68;99398.03;5055482;28;20418;-83
2024/04/04 03:46:11;;;;;;;;;;;11.10;99.90;;;11.27;76.20;99398.34;5055514;28;19979;-83
2024/04/04 03:48:43;;;;;;;;;;;11.10;99.90;;;11.20;76.80;99392.38;5059075;28;20216;-83
2024/04/04 03:51:09;;;;;;;;;;;11.10;99.90;;;11.18;77.00;99383.81;5067108;28;19947;-83
2024/04/04 03:53:37;;;;;;;;;;;11.10;99.90;;;11.02;78.02;99383.53;5055908;28;19925;-83
2024/04/04 03:56:03;;;;;;;;;;;11.10;99.90;;;11.10;78.00;99371.66;5057012;28;20315;-83
2024/04/04 03:58:32;;;;;;;;;;;11.10;99.90;;;11.14;77.95;99370.13;5022077;28;19925;-83
2024/04/04 04:00:58;;;;;;;;;;;11.10;99.90;;;11.20;78.23;99368.34;5056555;28;20277;-83
2024/04/04 04:03:25;;;;;;;;;;;11.10;99.90;;;11.14;78.59;99369.31;5066801;28;20311;-83
2024/04/04 04:05:52;;;;;;;;;;;11.10;99.90;;;11.13;78.99;99365.03;5076624;28;20035;-83
2024/04/04 04:08:19;;;;;;;;;;;11.10;99.90;;;11.18;78.79;99360.59;5075750;28;19958;-83
2024/04/04 04:10:45;;;;;;;;;;;11.10;99.90;;;11.09;79.69;99364.72;5077578;28;19924;-83
2024/04/04 04:13:13;;;;;;;;;;;11.10;99.90;;;11.10;79.94;99360.97;5095174;28;20341;-82
2024/04/04 04:15:41;;;;;;;;;;;11.10;99.90;;;11.07;80.30;99364.94;5078005;28;19967;-82
2024/04/04 04:18:08;;;;;;;;;;;11.10;99.90;;;11.14;80.11;99353.31;5079262;28;19931;-82
2024/04/04 04:23:22;;;;;;;;;;;11.10;99.90;;;10.99;81.41;99345.88;5079878;28;19963;-83
2024/04/04 04:25:48;;;;;;;;;;;11.10;99.90;;;11.07;81.32;99356.13;5079710;28;20015;-82
2024/04/04 04:28:15;;;;;;;;;;;11.10;99.90;;;11.09;81.39;99348.69;5080774;28;19924;-84
2024/04/04 04:30:43;;;;;;;;;;;11.10;99.90;;;11.07;81.43;99346.25;5062217;28;19925;-82
2024/04/04 04:33:11;;;;;;;;;;;11.10;99.90;;;11.10;81.81;99336.97;5078817;28;19924;-82
2024/04/04 04:35:37;;;;;;;;;;;11.10;99.90;;;11.06;82.07;99338.50;5077995;28;19924;-83
2024/04/04 04:38:05;;;;;;;;;;;11.10;99.90;;;11.13;81.96;99335.69;5065680;28;19925;-83
2024/04/04 04:40:31;;;;;;;;;;;11.10;99.90;;;11.15;81.97;99326.38;5067319;28;19932;-84
2024/04/04 04:42:58;;;;;;;;;;;11.10;99.90;;;11.19;82.00;99332.84;5066852;28;19967;-84
2024/04/04 04:45:24;;;;;;;;;;;11.20;99.90;;;11.22;81.90;99315.53;5083040;28;19932;-84
2024/04/04 04:47:53;;;;;;;;;;;11.20;99.90;;;11.23;82.37;99317.16;5083013;28;19975;-84
2024/04/04 04:50:19;;;;;;;;;;;11.20;99.90;;;11.20;82.28;99314.97;5081744;28;19928;-83
2024/04/04 04:52:47;;;;;;;;;;;11.20;99.90;;;11.24;82.39;99324.13;5083012;28;19924;-84
2024/04/04 04:55:14;;;;;;;;;;;11.20;99.90;;;11.25;82.28;99315.84;5082014;28;19931;-84
2024/04/04 04:57:41;;;;;;;;;;;11.30;99.90;;;11.29;82.32;99314.31;5081090;28;19928;-84
2024/04/04 05:00:11;;;;;;;;;;;11.30;99.90;;;11.32;82.46;99310.34;5081117;28;19946;-84
2024/04/04 05:02:39;;;;;;;;;;;11.30;99.90;;;11.33;82.49;99303.97;5082615;28;19986;-84
2024/04/04 05:05:15;;;;;;;;;;;11.30;99.90;;;11.34;82.66;99305.59;5082886;28;19925;-84
2024/04/04 05:07:42;;;;;;;;;;;11.30;99.90;;;11.38;82.60;99297.91;5082073;28;19976;-84
2024/04/04 05:10:10;;;;;;;;;;;11.30;99.90;;;11.41;82.56;99297.38;5082694;28;20011;-84
2024/04/04 05:12:38;;;;;;;;;;;11.30;99.90;;;11.40;82.60;99293.13;5082849;28;19931;-84
2024/04/04 05:15:06;;;;;;;;;;;11.40;99.90;;;11.39;82.87;99289.63;5082107;28;19928;-84
2024/04/04 05:17:33;;;;;;;;;;;11.40;99.90;;;11.41;82.90;99282.19;5080882;28;19932;-84
2024/04/04 05:19:59;;;;;;;;;;;11.40;99.90;;;11.46;82.75;99289.44;5081953;28;20414;-84
2024/04/04 05:22:29;;;;;;;;;;;11.40;99.90;;;11.45;82.87;99277.16;5082485;28;19928;-84
2024/04/04 05:24:56;;;;;;;;;;;11.40;99.90;;;11.42;83.15;99278.47;5080775;28;19956;-84
2024/04/04 05:27:23;;;;;;;;;;;11.40;99.90;;;11.43;83.71;99276.63;5080711;28;20024;-84
2024/04/04 05:29:52;;;;;;;;;;;11.40;99.90;;;11.46;83.81;99268.09;5082338;28;19925;-83
2024/04/04 05:32:19;;;;;;;;;;;11.40;99.90;;;11.48;83.74;99268.66;5081654;28;19970;-84
2024/04/04 05:34:47;;;;;;;;;;;11.50;99.90;;;11.45;84.13;99261.16;5080822;28;19932;-84
2024/04/04 05:37:15;;;;;;;;;;;11.50;99.90;;;11.49;84.00;99259.59;5082432;28;20018;-84
2024/04/04 05:39:43;;;;;;;;;;;11.50;99.90;;;11.51;84.24;99260.16;5066733;28;19954;-84
2024/04/04 05:42:10;;;;;;;;;;;11.50;99.90;;;11.54;84.15;99251.66;5082819;28;19963;-84
2024/04/04 05:44:37;;;;;;;;;;;11.50;99.90;;;11.58;84.15;99252.78;5083109;28;19932;-84
2024/04/04 05:47:04;;;;;;;;;;;11.50;99.90;;;11.61;84.19;99254.94;5083789;28;19929;-84
2024/04/04 05:49:31;;;;;;;;;;;11.50;99.90;;;11.64;83.78;99249.13;5084274;28;19995;-84
2024/04/04 05:51:58;;;;;;;;;;;11.60;99.90;;;11.64;84.10;99246.44;5066238;28;19925;-84
2024/04/04 05:54:24;;;;;;;;;;;11.60;99.90;;;11.65;84.53;99253.41;5082666;28;19936;-84
2024/04/04 05:56:53;;;;;;;;;;;11.60;99.90;;;11.63;84.79;99247.50;5082440;28;20399;-84
2024/04/04 05:59:19;;;;;;;;;;;11.60;99.90;;;11.65;85.12;99245.38;5083136;28;19968;-84
2024/04/04 06:01:46;;;;;;;;;;;11.60;99.90;;;11.67;84.95;99248.63;5081106;28;19924;-84
2024/04/04 06:04:12;;;;;;;;;;;11.60;99.90;;;11.67;85.33;99251.31;5083112;28;19967;-84
2024/04/04 06:06:41;;;;;;;;;;;11.60;99.90;;;11.68;84.98;99247.56;5081731;28;19924;-84
2024/04/04 06:09:07;;;;;;;;;;;11.60;99.90;;;11.69;85.12;99246.50;5045638;28;19968;-84
2024/04/04 06:11:34;;;;;;;;;;;11.70;99.90;;;11.67;85.73;99232.59;5080161;28;19978;-84
2024/04/04 06:14:03;;;;;;;;;;;11.70;99.90;;;11.71;85.79;99244.41;5080543;28;19925;-84
2024/04/04 06:16:31;;;;;;;;;;;11.70;99.90;;;11.73;85.63;99230.81;5079541;28;19933;-84
2024/04/04 06:18:57;;;;;;;;;;;11.70;99.90;;;11.68;86.31;99239.56;5080892;28;20471;-84
2024/04/04 06:21:24;;;;;;;;;;;11.70;99.90;;;11.68;86.55;99234.22;5079495;28;19932;-84
2024/04/04 06:23:50;;;;;;;;;;;11.70;99.90;;;11.69;86.69;99233.16;5078680;28;19970;-84
2024/04/04 06:26:18;;;;;;;;;;;11.70;99.90;;;11.70;86.74;99226.75;5079151;28;20446;-84
2024/04/04 06:28:44;;;;;;;;;;;11.70;99.90;;;11.73;86.89;99228.94;5080121;28;19928;-84
2024/04/04 06:31:14;;;;;;;;;;;11.70;99.90;;;11.75;86.57;99226.00;5080470;28;19924;-84
2024/04/04 06:33:40;;;;;;;;;;;11.80;99.90;;;11.75;86.57;99226.00;5078580;28;19924;-83
2024/04/04 06:36:08;;;;;;;;;;;11.80;99.90;;;11.67;87.68;99224.59;5077185;28;19925;-82
2024/04/04 06:38:34;;;;;;;;;;;11.80;99.90;;;11.69;87.67;99219.81;5078321;28;19933;-82
2024/04/04 06:41:02;;;;;;;;;;;11.80;99.90;;;11.74;87.28;99216.38;5077424;28;19930;-83
2024/04/04 06:43:28;;;;;;;;;;;11.80;99.90;;;11.73;87.20;99215.56;5059803;28;19968;-84
2024/04/04 06:45:56;;;;;;;;;;;11.80;99.90;;;11.72;87.85;99216.63;5075459;28;20023;-85
2024/04/04 06:48:24;;;;;;;;;;;11.80;99.90;;;11.72;88.41;99215.84;5077724;28;19924;-85
2024/04/04 06:50:51;;;;;;;;;;;11.80;99.90;;;11.73;88.22;99218.25;5076221;28;19924;-83
2024/04/04 06:53:17;;;;;;;;;;;11.80;99.90;;;11.74;88.47;99217.19;5059763;28;19978;-83
2024/04/04 06:55:45;;;;;;;;;;;11.80;99.90;;;11.74;88.61;99217.19;5093208;28;20396;-83
2024/04/04 06:58:13;;;;;;;;;;;11.80;99.90;;;11.78;88.61;99212.16;5077222;28;19974;-85
2024/04/04 07:00:41;;;;;;;;;;;11.80;99.90;;;11.79;88.77;99206.56;5075221;28;19982;-87
2024/04/04 07:03:08;;;;;;;;;;;11.80;99.90;;;11.83;88.63;99209.56;5074851;28;19932;-87
2024/04/04 07:05:36;;;;;;;;;;;11.90;99.90;;;11.83;88.58;99206.91;5023051;28;19970;-87
2024/04/04 07:08:05;;;;;;;;;;;11.90;99.90;;;11.88;88.75;99198.94;5072868;28;19925;-87
2024/04/04 07:10:32;;;;;;;;;;;11.90;99.90;;;11.89;88.82;99205.09;5056530;28;19931;-86
2024/04/04 07:12:59;;;;;;;;;;;11.90;99.90;;;11.91;88.60;99201.13;5058315;28;20288;-85
2024/04/04 07:15:26;;;;;;;;;;;11.90;99.90;;;11.94;88.67;99197.94;5075888;28;20446;-83
2024/04/04 07:17:53;;;;;;;;;;;11.90;99.90;;;11.93;88.79;99198.19;5075512;28;20380;-83
2024/04/04 07:20:20;;;;;;;;;;;12.00;99.90;;;11.94;89.52;99189.91;5077223;28;19924;-84
2024/04/04 07:22:48;;;;;;;;;;;12.00;99.90;;;11.98;89.50;99195.56;5078619;28;19932;-84
2024/04/04 07:25:16;;;;;;;;;;;12.00;99.90;;;11.99;89.52;99183.81;5078418;28;20015;-84
2024/04/04 07:27:42;;;;;;;;;;;12.10;99.90;;;12.00;89.63;99190.78;5079838;28;20341;-84
2024/04/04 07:30:12;;;;;;;;;;;12.10;99.90;;;12.01;90.09;99181.72;5060565;28;19932;-84
2024/04/04 07:32:38;;;;;;;;;;;12.10;99.90;;;11.96;90.27;99182.47;5078188;28;19988;-82
2024/04/04 07:35:06;;;;;;;;;;;12.10;99.90;;;11.99;90.14;99181.94;5067500;28;20319;-81
2024/04/04 07:37:33;;;;;;;;;;;12.10;99.90;;;12.01;90.23;99184.41;5065755;28;20011;-80
2024/04/04 07:40:01;;;;;;;;;;;12.10;99.90;;;12.00;90.22;99180.88;5039221;28;20011;-81
2024/04/04 07:42:28;;;;;;;;;;;12.10;99.90;;;12.01;90.42;99177.19;5056459;28;19924;-81
2024/04/04 07:44:55;;;;;;;;;;;12.10;99.90;;;12.04;90.25;99178.53;5040740;28;19932;-81
2024/04/04 07:47:21;;;;;;;;;;;12.10;99.90;;;12.05;90.11;99174.78;5078750;28;20395;-81
2024/04/04 07:49:48;;;;;;;;;;;12.10;99.90;;;12.03;90.19;99172.38;5076850;28;19931;-81
2024/04/04 07:52:15;;;;;;;;;;;12.10;99.90;;;12.03;90.32;99166.22;5060927;28;19929;-81
2024/04/04 07:54:44;;;;;;;;;;;12.10;99.90;;;12.01;90.62;99158.47;5061906;28;19925;-81
2024/04/04 07:57:11;;;;;;;;;;;12.10;99.90;;;12.03;90.70;99168.91;5080470;28;20016;-82
2024/04/04 07:59:38;;;;;;;;;;;12.10;99.90;;;12.05;90.59;99174.78;5077901;28;19930;-81
2024/04/04 08:02:05;;;;;;;;;;;12.10;99.90;;;12.00;90.92;99172.06;5079573;28;19928;-81
2024/04/04 08:04:33;;;;;;;;;;;12.10;99.90;;;12.03;90.94;99183.06;5078672;28;20019;-81
2024/04/04 08:07:00;;;;;;;;;;;12.10;99.90;;;12.07;90.80;99188.72;5080375;28;19928;-82
2024/04/04 08:09:27;;;;;;;;;;;12.10;99.90;;;12.06;90.76;99208.50;5060938;28;19963;-81
2024/04/04 08:11:56;;;;;;;;;;;12.10;99.90;;;12.01;91.17;99192.41;5080920;28;20376;-81
2024/04/04 08:14:25;;;;;;;;;;;12.10;99.90;;;12.00;91.72;99212.16;5080495;28;20304;-81
2024/04/04 08:16:51;;;;;;;;;;;12.00;99.90;;;11.96;91.90;99214.53;5061409;28;19925;-81
2024/04/04 08:19:18;;;;;;;;;;;12.00;99.90;;;11.95;91.96;99218.25;5060865;28;20372;-82
2024/04/04 08:21:47;;;;;;;;;;;12.00;99.90;;;11.90;91.48;99220.84;5041913;28;19935;-82
2024/04/04 08:24:14;;;;;;;;;;;12.00;99.90;;;11.88;91.32;99224.84;5042671;28;19925;-81
2024/04/04 08:26:41;;;;;;;;;;;12.00;99.90;;;11.87;91.19;99226.72;5025016;28;19961;-82
2024/04/04 08:29:10;;;;;;;;;;;12.00;99.90;;;11.85;91.23;99218.13;5059124;28;20399;-84
2024/04/04 08:31:38;;;;;;;;;;;12.00;99.90;;;11.88;90.98;99206.16;5059310;28;19932;-83
2024/04/04 08:34:05;;;;;;;;;;;12.00;99.90;;;11.92;90.86;99204.59;5062462;28;19925;-82
2024/04/04 08:36:31;;;;;;;;;;;11.90;99.90;;;11.96;90.88;99206.53;5077709;28;19928;-82
2024/04/04 08:38:58;;;;;;;;;;;12.00;99.90;;;11.98;90.61;99207.06;5079543;28;19928;-82
2024/04/04 08:41:26;;;;;;;;;;;12.00;99.90;;;12.03;90.75;99200.97;5077880;28;19942;-82
2024/04/04 08:43:56;;;;;;;;;;;12.00;99.90;;;12.05;90.61;99210.34;5077922;28;19924;-82
2024/04/04 08:46:22;;;;;;;;;;;12.10;99.90;;;12.03;90.47;99215.13;5071701;28;19924;-82
2024/04/04 08:48:54;;;;;;;;;;;12.10;99.90;;;12.06;91.15;99229.88;5072807;28;20399;-82
2024/04/04 08:51:20;;;;;;;;;;;12.10;99.90;;;12.06;91.36;99236.03;5077742;28;20041;-82
2024/04/04 08:53:47;;;;;;;;;;;12.10;99.90;;;12.09;91.53;99245.38;5072225;28;19925;-82
2024/04/04 08:56:13;;;;;;;;;;;12.10;99.90;;;12.08;91.54;99255.28;5058842;28;19924;-82
2024/04/04 08:58:41;;;;;;;;;;;12.10;99.90;;;12.12;91.66;99250.25;5057672;28;19931;-82
2024/04/04 09:01:07;;;;;;;;;;;12.20;99.90;;;12.16;91.36;99246.00;5056669;28;19925;-82
2024/04/04 09:03:34;;;;;;;;;;;12.20;99.90;;;12.23;91.49;99243.94;5056400;28;20407;-82
2024/04/04 09:06:02;;;;;;;;;;;12.20;99.90;;;12.30;91.77;99241.06;5058748;28;20424;-82
2024/04/04 09:08:32;;;;;;;;;;;12.40;99.90;;;12.30;92.31;99247.22;5057587;28;19932;-82
2024/04/04 09:10:59;;;;;;;;;;;12.30;99.90;;;12.35;92.99;99249.16;5058312;28;19924;-82
2024/04/04 09:13:29;;;;;;;;;;;12.50;99.90;;;12.39;93.53;99244.88;5057335;28;19932;-82
2024/04/04 09:16:00;;;;;;;;;;;12.60;99.90;;;12.46;94.07;99256.19;5058608;28;19929;-82
2024/04/04 09:18:28;;;;;;;;;;;12.60;99.90;;;12.51;94.13;99260.78;5057209;28;20384;-83
2024/04/04 09:20:57;;;;;;;;;;;12.70;99.90;;;12.49;94.13;99270.91;5058292;28;19929;-82
2024/04/04 09:23:26;;;;;;;;;;;12.70;99.90;;;12.55;94.66;99280.63;5059225;28;19960;-82
2024/04/04 09:25:53;;;;;;;;;;;12.70;99.90;;;12.60;94.83;99273.44;5058840;28;20411;-82
2024/04/04 09:28:20;;;;;;;;;;;12.80;99.90;;;12.59;94.09;99279.84;5057602;28;19975;-82
2024/04/04 09:30:49;;;;;;;;;;;12.80;99.90;;;12.61;93.54;99288.44;5058920;28;20004;-82
2024/04/04 09:33:20;;;;;;;;;;;12.80;99.90;;;12.63;93.41;99280.13;5057326;28;19964;-82
2024/04/04 09:35:51;;;;;;;;;;;12.80;99.90;;;12.59;92.92;99284.38;5057767;28;19928;-82
2024/04/04 09:38:19;;;;;;;;;;;12.80;99.90;;;12.61;92.77;99285.75;5057484;28;19925;-82
2024/04/04 09:40:48;;;;;;;;;;;12.80;99.90;;;12.58;92.74;99283.56;5058501;28;20303;-82
2024/04/04 09:43:16;;;;;;;;;;;12.80;99.90;;;12.55;91.95;99288.63;5059022;28;19931;-82
2024/04/04 09:45:43;;;;;;;;;;;12.70;99.90;;;12.59;92.28;99287.06;5059093;28;20043;-83
2024/04/04 09:48:13;;;;;;;;;;;12.80;99.90;;;12.63;92.79;99293.50;5057316;28;19925;-82
2024/04/04 09:50:40;;;;;;;;;;;12.80;99.90;;;12.73;93.46;99296.28;5058768;28;19925;-82
2024/04/04 09:53:08;;;;;;;;;;;13.00;99.90;;;12.79;93.28;99303.31;5056836;28;19925;-82
2024/04/04 09:55:34;;;;;;;;;;;13.00;99.90;;;12.86;92.78;99306.56;5056468;28;19925;-82
2024/04/04 09:58:03;;;;;;;;;;;13.10;99.90;;;12.86;92.49;99301.22;5058862;28;20388;-82
2024/04/04 10:00:29;;;;;;;;;;;13.10;99.90;;;12.83;91.77;99312.44;5058595;28;19925;-82
2024/04/04 10:02:57;;;;;;;;;;;13.10;99.90;;;12.86;92.06;99314.59;5057268;28;19928;-82
2024/04/04 10:05:33;;;;;;;;;;;13.10;99.90;;;12.92;91.96;99312.75;5056884;28;20402;-82
2024/04/04 10:08:08;;;;;;;;;;;13.20;99.90;;;12.94;91.85;99305.31;5056118;28;19925;-82
2024/04/04 10:10:35;;;;;;;;;;;13.20;99.90;;;12.94;91.40;99307.97;5056483;28;19925;-82
2024/04/04 10:13:08;;;;;;;;;;;13.20;99.90;;;12.96;91.21;99313.06;5058410;28;19932;-82
2024/04/04 10:15:42;;;;;;;;;;;13.20;99.90;;;12.93;90.91;99314.38;5056888;28;19924;-82
2024/04/04 10:18:11;;;;;;;;;;;13.20;99.90;;;12.85;90.01;99313.00;5056707;28;19973;-82
2024/04/04 10:20:50;;;;;;;;;;;13.10;99.90;;;12.84;89.56;99311.38;5056597;28;19975;-82
2024/04/04 10:23:17;;;;;;;;;;;13.00;99.90;;;12.86;89.35;99316.47;5057207;28;19935;-82
2024/04/04 10:25:43;;;;;;;;;;;13.00;99.90;;;12.86;89.46;99319.94;5057125;28;19925;-82
2024/04/04 10:28:13;;;;;;;;;;;13.00;99.90;;;12.83;89.01;99325.00;5056209;28;19924;-82
2024/04/04 10:30:41;;;;;;;;;;;13.00;99.90;;;12.83;89.41;99325.00;5057258;28;19990;-82
2024/04/04 10:33:09;;;;;;;;;;;13.10;99.90;;;12.83;89.60;99325.81;5057191;28;20380;-83
2024/04/04 10:35:35;;;;;;;;;;;13.10;99.90;;;12.85;89.19;99323.69;5057914;28;19959;-82
2024/04/04 10:38:08;;;;;;;;;;;13.10;99.90;;;12.88;88.72;99317.84;5055741;28;19925;-82
2024/04/04 10:40:34;;;;;;;;;;;13.10;99.90;;;12.92;88.57;99311.97;5055364;28;19925;-82
2024/04/04 10:43:03;;;;;;;;;;;13.20;99.90;;;12.95;87.93;99312.25;5054577;28;19971;-85
2024/04/04 10:45:31;;;;;;;;;;;13.20;99.90;;;13.01;87.71;99338.00;5037015;28;19925;-86
2024/04/04 10:47:59;;;;;;;;;;;13.30;99.90;;;13.04;87.71;99339.38;5058330;28;19924;-82
2024/04/04 10:50:26;;;;;;;;;;;13.30;99.90;;;13.03;87.06;99356.47;5066741;28;19939;-82
2024/04/04 10:52:53;;;;;;;;;;;13.30;99.90;;;13.05;86.93;99351.69;5074613;28;19924;-82
2024/04/04 10:55:20;;;;;;;;;;;13.30;99.90;;;13.06;87.32;99345.28;5074191;28;19924;-82
2024/04/04 10:57:51;;;;;;;;;;;13.30;99.90;;;13.11;87.85;99348.78;5057832;28;20452;-82
2024/04/04 11:00:19;;;;;;;;;;;13.30;99.90;;;13.11;85.85;99343.44;5075416;28;20023;-82
2024/04/04 11:02:48;;;;;;;;;;;13.40;99.90;;;13.14;85.21;99340.25;5069191;28;19952;-82
2024/04/04 11:05:16;;;;;;;;;;;13.40;99.90;;;13.18;84.50;99334.41;5053726;28;19930;-81
2024/04/04 11:07:46;;;;;;;;;;;13.50;99.90;;;13.20;83.91;99346.47;5065618;28;19924;-82
2024/04/04 11:10:13;;;;;;;;;;;13.50;99.90;;;13.21;84.52;99348.06;5054076;28;19924;-82
2024/04/04 11:12:41;;;;;;;;;;;13.50;99.90;;;13.15;83.52;99347.22;5067348;28;20383;-82
2024/04/04 11:15:08;;;;;;;;;;;13.40;99.90;;;13.16;82.70;99350.69;5073846;28;19956;-82
2024/04/04 11:17:35;;;;;;;;;;;13.40;99.90;;;13.20;82.62;99349.13;5075765;28;20008;-82
2024/04/04 11:20:05;;;;;;;;;;;13.50;99.90;;;13.29;83.83;99360.22;5075351;28;19954;-82